Time;durP1;ratioP1;P1;durP2;ratioP2;P2;SDS_P1;SDS_P2;PMS_P1;PMS_P2;Temp;Humidity;BMP_temperature;BMP_pressure;BME280_temperature;BME280_humidity;BME280_pressure;Samples;Min_cycle;Max_cycle;Signal;HPM_P1;HPM_P2
2020/12/04 00:01:35;;;;;;;32.05;19.08;;;1.20;74.00;;;;;;5096608;28;20028;-63
2020/12/04 00:04:01;;;;;;;33.80;19.92;;;1.20;74.00;;;;;;5112927;28;20113;-65
2020/12/04 00:06:32;;;;;;;32.72;19.70;;;1.10;74.10;;;;;;5110544;28;20040;-63
2020/12/04 00:09:04;;;;;;;36.10;20.05;;;1.10;74.20;;;;;;5092812;28;20024;-66
2020/12/04 00:11:34;;;;;;;32.13;19.90;;;1.10;74.20;;;;;;5075412;28;20360;-64
2020/12/04 00:14:00;;;;;;;39.10;21.25;;;1.10;74.30;;;;;;5112520;28;20050;-64
2020/12/04 00:16:27;;;;;;;33.42;20.13;;;1.20;74.40;;;;;;5112306;28;20020;-64
2020/12/04 00:18:54;;;;;;;37.55;22.23;;;1.20;74.40;;;;;;5112403;28;20034;-64
2020/12/04 00:21:22;;;;;;;41.88;24.23;;;1.20;74.50;;;;;;5095544;28;20035;-63
2020/12/04 00:23:50;;;;;;;34.40;20.00;;;1.20;74.20;;;;;;5112130;28;20032;-64
2020/12/04 00:26:17;;;;;;;35.00;19.80;;;1.10;74.10;;;;;;5111023;28;20131;-64
2020/12/04 00:28:45;;;;;;;37.70;21.05;;;1.20;73.80;;;;;;5114208;28;20104;-65
2020/12/04 00:31:12;;;;;;;37.17;21.10;;;1.10;73.70;;;;;;5107902;28;20084;-66
2020/12/04 00:33:44;;;;;;;35.05;21.05;;;1.00;73.80;;;;;;5122066;28;20039;-66
2020/12/04 00:36:14;;;;;;;36.00;22.05;;;1.00;73.80;;;;;;5124733;28;20068;-63
2020/12/04 00:38:46;;;;;;;35.92;20.05;;;1.00;73.60;;;;;;5101447;28;20525;-64
2020/12/04 00:41:14;;;;;;;36.20;21.35;;;1.00;73.80;;;;;;5092852;28;20059;-65
2020/12/04 00:43:42;;;;;;;35.13;19.90;;;1.10;74.60;;;;;;5092686;28;20040;-65
2020/12/04 00:46:16;;;;;;;39.85;22.33;;;1.10;74.00;;;;;;5094166;28;20035;-64
2020/12/04 00:48:54;;;;;;;31.88;19.35;;;1.30;87.20;;;;;;5092874;28;20024;-58
2020/12/04 00:51:27;;;;;;;34.25;20.33;;;2.00;79.90;;;;;;5093359;28;20031;-57
2020/12/04 00:53:55;;;;;;;31.83;21.17;;;2.60;71.30;;;;;;5095221;28;20048;-57
2020/12/04 00:56:29;;;;;;;34.33;20.05;;;2.30;69.10;;;;;;5120965;28;20043;-56
2020/12/04 00:59:01;;;;;;;36.72;20.52;;;2.00;70.20;;;;;;5106297;28;20024;-57
2020/12/04 01:01:44;;;;;;;34.40;20.60;;;1.70;71.50;;;;;;5120865;28;21460;-57
2020/12/04 01:04:11;;;;;;;37.33;21.42;;;1.60;71.30;;;;;;5122559;28;20035;-56
2020/12/04 01:06:39;;;;;;;34.85;19.98;;;1.40;71.70;;;;;;5118367;28;20389;-56
2020/12/04 01:09:11;;;;;;;38.60;22.08;;;1.10;72.90;;;;;;5121226;28;20028;-53
2020/12/04 01:11:42;;;;;;;38.08;21.95;;;0.90;73.60;;;;;;5117526;28;20038;-55
2020/12/04 01:14:18;;;;;;;33.88;21.23;;;1.00;73.60;;;;;;5102758;28;20028;-53
2020/12/04 01:16:47;;;;;;;39.00;21.92;;;1.00;73.30;;;;;;5098335;28;20070;-53
2020/12/04 01:19:17;;;;;;;36.70;21.73;;;1.00;73.40;;;;;;5124722;27;20020;-57
2020/12/04 01:21:51;;;;;;;35.42;21.45;;;0.90;73.40;;;;;;5123892;27;20035;-55
2020/12/04 01:24:22;;;;;;;36.03;21.23;;;0.90;73.10;;;;;;5125006;27;20036;-59
2020/12/04 01:26:50;;;;;;;36.00;21.02;;;0.80;73.60;;;;;;5113953;28;20027;-58
2020/12/04 01:29:18;;;;;;;36.58;20.98;;;0.80;73.30;;;;;;5114927;28;20131;-56
2020/12/04 01:31:55;;;;;;;37.60;20.95;;;0.80;73.60;;;;;;5112785;28;20028;-58
2020/12/04 01:34:23;;;;;;;35.88;22.80;;;0.70;73.90;;;;;;5096828;28;20043;-59
2020/12/04 01:36:52;;;;;;;33.72;20.40;;;0.60;74.40;;;;;;5110790;28;20040;-57
2020/12/04 01:39:22;;;;;;;38.63;22.50;;;0.60;74.30;;;;;;5111233;28;20114;-58
2020/12/04 01:41:51;;;;;;;35.50;20.60;;;0.60;74.00;;;;;;5121984;28;20032;-58
2020/12/04 01:44:21;;;;;;;38.08;20.48;;;0.60;74.10;;;;;;5116659;28;20081;-55
2020/12/04 01:46:52;;;;;;;35.03;21.00;;;0.60;73.70;;;;;;5113842;28;20019;-58
2020/12/04 01:49:21;;;;;;;34.28;20.50;;;0.60;73.80;;;;;;5114440;28;20225;-56
2020/12/04 01:51:55;;;;;;;35.17;20.63;;;0.50;74.00;;;;;;5095687;28;20482;-59
2020/12/04 01:54:26;;;;;;;35.83;21.13;;;0.60;74.20;;;;;;5096134;28;20031;-56
2020/12/04 01:56:57;;;;;;;38.85;20.10;;;0.50;73.90;;;;;;5113508;28;20073;-56
2020/12/04 01:59:26;;;;;;;34.35;20.70;;;0.40;74.20;;;;;;5114456;28;20047;-55
2020/12/04 02:02:13;;;;;;;39.60;21.40;;;0.40;74.40;;;;;;5113724;28;20036;-57
2020/12/04 02:04:44;;;;;;;36.85;20.95;;;0.40;74.50;;;;;;5113841;28;20047;-58
2020/12/04 02:07:50;;;;;;;39.10;21.13;;;0.60;74.00;;;;;;5110013;28;20047;-57
2020/12/04 02:10:37;;;;;;;33.28;20.00;;;0.60;73.80;;;;;;5106521;28;20110;-60
2020/12/04 02:13:08;;;;;;;39.17;21.35;;;0.60;73.60;;;;;;5115641;28;20046;-57
2020/12/04 02:15:38;;;;;;;38.30;22.52;;;0.60;73.60;;;;;;5113825;28;20385;-56
2020/12/04 02:18:08;;;;;;;36.25;21.25;;;0.50;73.90;;;;;;5093070;28;20043;-55
2020/12/04 02:20:38;;;;;;;38.80;23.30;;;0.60;74.00;;;;;;5115585;28;20061;-58
2020/12/04 02:23:11;;;;;;;35.42;20.85;;;0.50;74.00;;;;;;5095419;28;20066;-56
2020/12/04 02:25:44;;;;;;;38.45;21.30;;;0.40;74.30;;;;;;5113853;28;20036;-55
2020/12/04 02:28:17;;;;;;;38.53;20.98;;;0.40;74.40;;;;;;5113201;28;20043;-59
2020/12/04 02:30:47;;;;;;;37.92;22.35;;;0.40;74.40;;;;;;5112645;28;20094;-58
2020/12/04 02:33:19;;;;;;;41.55;22.35;;;0.40;74.20;;;;;;5100941;28;20439;-56
2020/12/04 02:35:49;;;;;;;39.25;23.40;;;0.40;74.30;;;;;;5100149;28;20116;-59
2020/12/04 02:38:19;;;;;;;38.28;22.85;;;0.40;73.90;;;;;;5094547;28;20035;-55
2020/12/04 02:40:52;;;;;;;36.83;21.25;;;0.30;74.50;;;;;;5111921;28;20039;-56
2020/12/04 02:43:31;;;;;;;45.13;23.80;;;0.30;74.60;;;;;;5113411;28;20032;-55
2020/12/04 02:46:04;;;;;;;38.08;20.52;;;0.30;74.50;;;;;;5094684;28;20132;-57
2020/12/04 02:48:39;;;;;;;37.63;22.40;;;0.30;74.50;;;;;;5112214;28;20082;-55
2020/12/04 02:51:09;;;;;;;39.20;22.00;;;0.10;74.80;;;;;;5113272;28;20066;-56
2020/12/04 02:53:40;;;;;;;38.22;23.05;;;0.10;75.20;;;;;;5112151;28;20035;-56
2020/12/04 02:56:17;;;;;;;36.20;22.33;;;0.10;75.20;;;;;;5112935;28;20031;-54
2020/12/04 02:58:47;;;;;;;40.40;22.08;;;0.10;75.30;;;;;;5106023;28;20051;-59
2020/12/04 03:01:16;;;;;;;35.78;20.42;;;0.20;74.90;;;;;;5113130;28;20075;-57
2020/12/04 03:03:47;;;;;;;36.22;21.02;;;0.10;75.00;;;;;;5113564;28;20043;-58
2020/12/04 03:06:19;;;;;;;39.42;22.67;;;0.20;75.10;;;;;;5116452;28;20486;-59
2020/12/04 03:08:50;;;;;;;38.47;22.67;;;0.20;74.80;;;;;;5107784;28;20032;-59
2020/12/04 03:11:24;;;;;;;40.65;22.40;;;0.30;74.50;;;;;;5119786;28;20053;-60
2020/12/04 03:13:54;;;;;;;37.55;21.48;;;0.20;74.90;;;;;;5112599;28;20040;-61
2020/12/04 03:16:28;;;;;;;38.47;20.80;;;0.20;74.70;;;;;;5107042;28;20039;-60
2020/12/04 03:18:59;;;;;;;39.25;21.42;;;0.10;74.90;;;;;;5118442;28;20038;-59
2020/12/04 03:21:28;;;;;;;37.53;20.75;;;0.00;75.00;;;;;;5122057;28;20043;-59
2020/12/04 03:24:07;;;;;;;40.17;22.17;;;0.10;75.10;;;;;;5101736;28;20051;-59
2020/12/04 03:26:38;;;;;;;38.88;20.60;;;0.10;75.00;;;;;;5119209;28;20212;-60
2020/12/04 03:29:11;;;;;;;35.40;20.35;;;0.20;74.50;;;;;;5105693;28;20036;-59
2020/12/04 03:31:40;;;;;;;38.55;20.65;;;0.20;74.20;;;;;;5108194;28;20036;-59
2020/12/04 03:34:09;;;;;;;34.30;19.50;;;0.30;74.10;;;;;;5119477;28;20065;-60
2020/12/04 03:36:39;;;;;;;37.33;21.25;;;0.30;74.00;;;;;;5113553;28;20024;-60
2020/12/04 03:39:12;;;;;;;36.60;21.17;;;0.30;73.50;;;;;;5114681;28;20075;-61
2020/12/04 03:41:43;;;;;;;38.95;21.15;;;0.30;73.80;;;;;;5114613;28;20505;-59
2020/12/04 03:44:14;;;;;;;39.92;21.83;;;0.10;74.00;;;;;;5111086;28;20114;-60
2020/12/04 03:46:51;;;;;;;37.08;20.08;;;0.10;74.30;;;;;;5112482;28;20482;-58
2020/12/04 03:49:20;;;;;;;35.38;20.15;;;0.10;74.30;;;;;;5080523;28;20066;-53
2020/12/04 03:51:50;;;;;;;40.42;20.80;;;0.20;74.20;;;;;;5091881;28;20449;-59
2020/12/04 03:54:24;;;;;;;41.33;22.35;;;0.10;74.20;;;;;;5092470;28;20130;-53
2020/12/04 03:56:53;;;;;;;36.47;20.42;;;0.00;74.40;;;;;;5074787;28;20036;-54
2020/12/04 03:59:28;;;;;;;37.00;21.13;;;0.00;74.60;;;;;;5105574;28;20036;-54
2020/12/04 04:01:57;;;;;;;36.47;19.10;;;0.00;74.60;;;;;;5094177;28;20478;-56
2020/12/04 04:04:27;;;;;;;38.80;20.08;;;0.00;74.40;;;;;;5110893;28;20375;-54
2020/12/04 04:06:57;;;;;;;39.17;21.00;;;0.00;74.60;;;;;;5094279;28;20032;-60
2020/12/04 04:09:30;;;;;;;37.20;20.80;;;-0.10;75.10;;;;;;5099270;28;20056;-60
2020/12/04 04:11:59;;;;;;;36.60;21.88;;;0.00;75.00;;;;;;5096956;28;20027;-58
2020/12/04 04:14:33;;;;;;;34.08;19.85;;;0.00;74.70;;;;;;5093442;28;20043;-61
2020/12/04 04:17:02;;;;;;;31.25;18.55;;;0.00;74.70;;;;;;5112279;28;20031;-60
2020/12/04 04:19:32;;;;;;;37.33;20.92;;;0.10;74.90;;;;;;5082228;28;20047;-59
2020/12/04 04:22:09;;;;;;;38.47;20.67;;;0.20;74.40;;;;;;5075315;28;20131;-61
2020/12/04 04:24:39;;;;;;;31.17;19.02;;;0.30;74.00;;;;;;5103698;28;20036;-60
2020/12/04 04:27:08;;;;;;;36.80;19.73;;;0.20;74.00;;;;;;5111965;28;20020;-61
2020/12/04 04:29:39;;;;;;;37.65;21.75;;;0.20;74.30;;;;;;5100794;28;20036;-61
2020/12/04 04:32:09;;;;;;;33.47;20.10;;;0.10;74.10;;;;;;5091577;28;20417;-61
2020/12/04 04:34:46;;;;;;;36.90;20.02;;;0.10;74.20;;;;;;5103004;28;20039;-61
2020/12/04 04:37:16;;;;;;;32.47;18.20;;;0.10;74.20;;;;;;5111891;28;20122;-60
2020/12/04 04:39:50;;;;;;;37.30;20.08;;;0.10;74.00;;;;;;5104192;28;20039;-59
2020/12/04 04:42:19;;;;;;;34.10;19.23;;;0.10;74.40;;;;;;5091949;28;20372;-58
2020/12/04 04:44:55;;;;;;;35.15;20.40;;;0.10;74.50;;;;;;5102037;28;20552;-59
2020/12/04 04:47:33;;;;;;;34.05;19.60;;;0.10;74.40;;;;;;5111165;28;20040;-58
2020/12/04 04:50:05;;;;;;;42.10;23.85;;;0.10;74.00;;;;;;5091771;28;20061;-57
2020/12/04 04:52:37;;;;;;;35.08;19.73;;;0.10;74.60;;;;;;5111619;28;20032;-58
2020/12/04 04:55:07;;;;;;;32.67;19.45;;;0.20;74.40;;;;;;5102556;28;20037;-61
2020/12/04 04:57:42;;;;;;;35.38;19.17;;;0.10;74.30;;;;;;5095420;28;20042;-61
2020/12/04 05:00:14;;;;;;;38.15;19.48;;;0.10;74.70;;;;;;5107587;28;20070;-60
2020/12/04 05:02:49;;;;;;;35.58;18.38;;;0.10;74.50;;;;;;5116071;28;20032;-60
2020/12/04 05:05:19;;;;;;;33.20;19.30;;;0.30;74.20;;;;;;5097531;28;20092;-60
2020/12/04 05:07:51;;;;;;;33.38;20.30;;;0.30;74.40;;;;;;5115552;28;20505;-60
2020/12/04 05:10:20;;;;;;;32.22;18.65;;;0.30;74.30;;;;;;5116858;28;20047;-58
2020/12/04 05:13:02;;;;;;;32.42;18.75;;;0.40;74.60;;;;;;5105541;28;20163;-59
2020/12/04 05:15:33;;;;;;;32.50;19.55;;;0.40;74.50;;;;;;5108450;28;20051;-58
2020/12/04 05:18:20;;;;;;;34.67;18.50;;;0.50;74.70;;;;;;5115947;28;20032;-58
2020/12/04 05:21:02;;;;;;;30.45;19.20;;;0.50;74.70;;;;;;5099545;28;20103;-58
2020/12/04 05:23:30;;;;;;;32.95;18.08;;;0.50;74.50;;;;;;5096162;28;20032;-62
2020/12/04 05:26:02;;;;;;;33.47;20.08;;;0.30;75.30;;;;;;5100056;28;20063;-61
2020/12/04 05:28:31;;;;;;;30.48;17.65;;;0.40;75.40;;;;;;5095227;28;20039;-60
2020/12/04 05:31:11;;;;;;;32.58;18.45;;;0.30;75.50;;;;;;5095343;28;20093;-58
2020/12/04 05:33:41;;;;;;;;;;;0.40;76.40;;;;;;5094426;28;20402;-60
2020/12/04 05:36:10;;;;;;;32.13;18.42;;;0.50;76.50;;;;;;5096331;28;19918;-61
2020/12/04 05:39:03;;;;;;;33.60;18.77;;;0.60;78.00;;;;;;5095309;28;20039;-62
2020/12/04 05:41:49;;;;;;;35.72;19.92;;;0.70;78.20;;;;;;5090132;28;20575;-61
2020/12/04 05:44:20;;;;;;;33.00;19.05;;;0.80;78.10;;;;;;5114793;28;20043;-60
2020/12/04 05:46:58;;;;;;;32.50;18.85;;;0.90;77.50;;;;;;5094461;28;20157;-62
2020/12/04 05:49:26;;;;;;;32.25;18.23;;;1.00;76.80;;;;;;5094617;28;20169;-62
2020/12/04 05:51:54;;;;;;;33.63;19.35;;;0.90;77.20;;;;;;5076885;28;20028;-61
2020/12/04 05:54:21;;;;;;;30.70;17.75;;;0.90;78.00;;;;;;5076395;28;20035;-61
2020/12/04 05:56:55;;;;;;;32.00;18.55;;;0.90;77.50;;;;;;5113225;28;20038;-59
2020/12/04 05:59:24;;;;;;;33.03;18.70;;;0.90;77.50;;;;;;5114794;28;20490;-61
2020/12/04 06:01:52;;;;;;;32.42;18.60;;;1.00;77.70;;;;;;5096391;28;20116;-61
2020/12/04 06:04:19;;;;;;;30.98;18.52;;;1.10;77.90;;;;;;5094397;28;20059;-61
2020/12/04 06:06:51;;;;;;;29.83;18.05;;;1.10;78.30;;;;;;5112076;28;20107;-62
2020/12/04 06:09:22;;;;;;;36.63;20.08;;;1.10;78.30;;;;;;5115109;28;20035;-63
2020/12/04 06:11:50;;;;;;;34.42;19.65;;;1.00;77.70;;;;;;5083384;28;20028;-61
2020/12/04 06:14:23;;;;;;;31.58;19.45;;;0.80;78.60;;;;;;5114907;28;20043;-61
2020/12/04 06:17:05;;;;;;;33.47;19.15;;;0.80;78.80;;;;;;5095629;28;20039;-53
2020/12/04 06:19:35;;;;;;;35.85;19.35;;;0.90;78.90;;;;;;5114712;28;20073;-56
2020/12/04 06:22:12;;;;;;;30.02;18.88;;;0.90;78.10;;;;;;5114239;28;20031;-53
2020/12/04 06:24:56;;;;;;;34.25;19.88;;;1.00;77.90;;;;;;5113853;28;20479;-57
2020/12/04 06:27:38;;;;;;;34.38;18.48;;;1.00;77.70;;;;;;5114178;28;20028;-57
2020/12/04 06:30:14;;;;;;;33.28;18.90;;;0.90;77.10;;;;;;5112646;28;20362;-57
2020/12/04 06:32:44;;;;;;;28.45;17.83;;;0.90;77.00;;;;;;5112021;28;20173;-59
2020/12/04 06:35:14;;;;;;;34.60;19.13;;;0.90;77.00;;;;;;5112148;28;20047;-60
2020/12/04 06:37:45;;;;;;;31.40;18.85;;;1.00;76.80;;;;;;5094054;28;20040;-57
2020/12/04 06:40:32;;;;;;;32.28;18.67;;;1.10;76.80;;;;;;5095270;28;20032;-54
2020/12/04 06:43:03;;;;;;;33.63;18.80;;;1.10;76.60;;;;;;5113860;28;20063;-56
2020/12/04 06:45:50;;;;;;;30.90;18.63;;;1.00;76.80;;;;;;5110102;28;20070;-56
2020/12/04 06:48:21;;;;;;;34.28;19.00;;;1.00;77.00;;;;;;5093796;28;20063;-57
2020/12/04 06:50:50;;;;;;;33.05;19.23;;;1.00;77.20;;;;;;5098552;28;20028;-59
2020/12/04 06:53:21;;;;;;;32.83;18.40;;;1.00;77.30;;;;;;5114649;28;20453;-56
2020/12/04 06:55:52;;;;;;;30.85;18.45;;;1.00;77.30;;;;;;5109736;28;20043;-57
2020/12/04 06:58:22;;;;;;;31.83;18.60;;;1.00;77.60;;;;;;5093762;28;20025;-53
2020/12/04 07:00:58;;;;;;;31.33;18.85;;;1.00;77.40;;;;;;5094116;28;20032;-57
2020/12/04 07:03:32;;;;;;;32.28;18.77;;;1.00;78.10;;;;;;5093263;28;20024;-55
2020/12/04 07:05:59;;;;;;;40.58;23.08;;;1.00;77.40;;;;;;5095494;28;20533;-59
2020/12/04 07:08:29;;;;;;;44.42;21.80;;;1.00;77.30;;;;;;5113209;28;20067;-59
2020/12/04 07:10:57;;;;;;;35.33;20.73;;;1.10;77.70;;;;;;5094551;28;20059;-58
2020/12/04 07:13:25;;;;;;;34.88;20.88;;;1.10;77.60;;;;;;5093936;28;20043;-61
2020/12/04 07:15:59;;;;;;;31.52;19.25;;;1.10;77.60;;;;;;5113272;28;20084;-61
2020/12/04 07:18:36;;;;;;;32.47;18.98;;;1.00;78.10;;;;;;5113908;28;20048;-61
2020/12/04 07:21:03;;;;;;;33.72;19.38;;;1.10;77.80;;;;;;5108916;28;20052;-60
2020/12/04 07:23:38;;;;;;;35.15;19.17;;;1.10;77.70;;;;;;5092450;28;20119;-60
2020/12/04 07:26:19;;;;;;;35.50;20.17;;;1.20;77.40;;;;;;5078485;28;20102;-61
2020/12/04 07:28:51;;;;;;;32.17;18.55;;;1.20;77.60;;;;;;5112730;28;20031;-61
2020/12/04 07:31:22;;;;;;;35.13;18.98;;;1.30;77.30;;;;;;5107617;28;20502;-62
2020/12/04 07:34:01;;;;;;;33.22;18.90;;;1.30;76.90;;;;;;5094686;28;20039;-62
2020/12/04 07:36:32;;;;;;;37.78;20.90;;;1.40;76.70;;;;;;5094204;28;20046;-56
2020/12/04 07:39:01;;;;;;;36.25;19.50;;;1.20;77.10;;;;;;5112718;28;20061;-59
2020/12/04 07:41:39;;;;;;;36.40;19.38;;;1.30;77.20;;;;;;5102311;28;20032;-56
2020/12/04 07:44:08;;;;;;;32.67;19.27;;;1.30;76.90;;;;;;5075561;28;20035;-54
2020/12/04 07:46:35;;;;;;;34.42;18.23;;;1.30;76.60;;;;;;5103488;28;20409;-59
2020/12/04 07:49:04;;;;;;;32.95;18.83;;;1.30;76.40;;;;;;5112923;28;20046;-56
2020/12/04 07:51:31;;;;;;;30.73;18.50;;;1.30;76.10;;;;;;5103330;28;20054;-57
2020/12/04 07:53:57;;;;;;;30.83;18.25;;;1.30;76.10;;;;;;5097060;28;20092;-60
2020/12/04 07:56:26;;;;;;;33.22;18.77;;;1.50;75.00;;;;;;5096993;28;20082;-59
2020/12/04 07:59:03;;;;;;;34.25;18.17;;;1.60;74.40;;;;;;5097236;28;20418;-57
2020/12/04 08:01:30;;;;;;;38.42;22.45;;;1.70;74.00;;;;;;5096204;28;20052;-59
2020/12/04 08:03:56;;;;;;;32.08;17.60;;;1.70;74.30;;;;;;5089428;28;20059;-60
2020/12/04 08:06:27;;;;;;;30.45;17.58;;;1.70;74.30;;;;;;5085226;28;20067;-54
2020/12/04 08:09:16;;;;;;;31.42;17.75;;;1.70;74.20;;;;;;5092907;28;20060;-61
2020/12/04 08:11:54;;;;;;;33.95;19.65;;;1.80;74.20;;;;;;5084879;28;20085;-61
2020/12/04 08:14:29;;;;;;;34.60;19.00;;;1.80;73.90;;;;;;5074829;28;20543;-53
2020/12/04 08:16:57;;;;;;;29.63;17.65;;;1.80;73.50;;;;;;5113116;28;20076;-56
2020/12/04 08:19:32;;;;;;;29.63;18.42;;;1.90;73.40;;;;;;5123095;28;20028;-60
2020/12/04 08:22:03;;;;;;;29.38;18.20;;;1.80;73.50;;;;;;5109105;28;20024;-61
2020/12/04 08:25:04;;;;;;;30.70;17.17;;;1.80;73.00;;;;;;5108435;28;20315;-61
2020/12/04 08:27:31;;;;;;;31.40;17.08;;;1.80;73.20;;;;;;5092299;28;20043;-61
2020/12/04 08:30:15;;;;;;;30.75;18.08;;;1.90;73.10;;;;;;5096914;28;20054;-61
2020/12/04 08:32:48;;;;;;;29.98;17.15;;;1.90;73.00;;;;;;5114508;28;20168;-59
2020/12/04 08:35:22;;;;;;;28.80;17.25;;;2.00;72.90;;;;;;5116426;28;20080;-62
2020/12/04 08:37:49;;;;;;;29.25;17.70;;;2.00;73.00;;;;;;5096668;28;20024;-62
2020/12/04 08:40:34;;;;;;;32.38;19.73;;;2.00;72.70;;;;;;5095986;28;20499;-61
2020/12/04 08:43:20;;;;;;;32.17;18.80;;;2.10;72.60;;;;;;5096175;28;20059;-60
2020/12/04 08:45:52;;;;;;;32.28;18.35;;;2.10;72.80;;;;;;5077592;28;20040;-61
2020/12/04 08:48:22;;;;;;;33.67;19.05;;;2.10;72.30;;;;;;5115510;28;20054;-60
2020/12/04 08:50:54;;;;;;;34.20;18.45;;;2.20;72.10;;;;;;5119042;28;20024;-60
2020/12/04 08:53:21;;;;;;;28.67;17.83;;;2.20;72.20;;;;;;5068031;28;20059;-61
2020/12/04 08:55:49;;;;;;;29.98;17.75;;;2.30;71.80;;;;;;5104283;28;20433;-61
2020/12/04 08:58:16;;;;;;;29.98;18.15;;;2.30;71.50;;;;;;5115554;28;20042;-61
2020/12/04 09:00:42;;;;;;;25.60;16.98;;;2.20;72.10;;;;;;5116681;28;20126;-61
2020/12/04 09:03:08;;;;;;;25.95;17.02;;;2.30;74.60;;;;;;5098505;28;20103;-61
2020/12/04 09:05:34;;;;;;;27.90;17.80;;;2.40;75.10;;;;;;5094584;28;20509;-57
2020/12/04 09:07:59;;;;;;;29.33;17.55;;;2.60;74.90;;;;;;5109011;28;20059;-59
2020/12/04 09:10:25;;;;;;;29.02;17.80;;;2.60;73.00;;;;;;5116190;28;20020;-60
2020/12/04 09:12:51;;;;;;;28.38;17.83;;;2.70;72.50;;;;;;5115280;28;20038;-59
2020/12/04 09:15:18;;;;;;;28.88;18.33;;;2.70;71.50;;;;;;5117091;28;20061;-58
2020/12/04 09:17:48;;;;;;;25.13;16.10;;;2.80;71.10;;;;;;5103406;28;20031;-64
2020/12/04 09:20:14;;;;;;;28.80;16.80;;;2.80;70.50;;;;;;5095661;28;20046;-62
2020/12/04 09:22:40;;;;;;;27.75;17.50;;;2.80;70.30;;;;;;5096376;28;20507;-60
2020/12/04 09:25:08;;;;;;;27.33;16.50;;;2.70;70.10;;;;;;5075925;28;20109;-67
2020/12/04 09:27:34;;;;;;;28.35;17.55;;;2.80;70.30;;;;;;5103991;28;20034;-59
2020/12/04 09:30:00;;;;;;;33.50;19.15;;;2.80;70.10;;;;;;5116106;28;20378;-58
2020/12/04 09:32:27;;;;;;;67.65;38.95;;;2.80;70.00;;;;;;5108698;28;20463;-59
2020/12/04 09:34:53;;;;;;;34.53;20.58;;;2.90;69.60;;;;;;5095116;28;20050;-61
2020/12/04 09:37:29;;;;;;;32.95;18.30;;;2.90;69.90;;;;;;5100859;28;20028;-61
2020/12/04 09:40:00;;;;;;;29.95;17.77;;;3.00;69.40;;;;;;5096399;28;20482;-59
2020/12/04 09:42:27;;;;;;;25.90;16.13;;;3.00;69.30;;;;;;5108625;28;20059;-59
2020/12/04 09:44:54;;;;;;;43.88;28.00;;;3.00;69.60;;;;;;5076254;28;20401;-59
2020/12/04 09:47:22;;;;;;;39.22;22.95;;;3.10;69.50;;;;;;5099077;28;20051;-61
2020/12/04 09:49:48;;;;;;;31.13;17.90;;;3.10;69.50;;;;;;5115302;28;20062;-61
2020/12/04 09:52:15;;;;;;;29.50;18.33;;;3.20;69.30;;;;;;5114063;28;20034;-63
2020/12/04 09:54:44;;;;;;;29.85;17.48;;;3.20;69.30;;;;;;5114435;28;20027;-59
2020/12/04 09:57:12;;;;;;;32.20;17.98;;;3.20;68.90;;;;;;5108130;28;20031;-59
2020/12/04 09:59:38;;;;;;;33.85;18.95;;;3.10;69.30;;;;;;5107701;28;20044;-60
2020/12/04 10:02:05;;;;;;;29.15;17.77;;;3.00;69.60;;;;;;5115273;28;20051;-61
2020/12/04 10:04:31;;;;;;;32.78;18.40;;;3.10;70.00;;;;;;5106336;28;20554;-61
2020/12/04 10:06:57;;;;;;;34.58;18.67;;;3.10;70.00;;;;;;5101250;28;20039;-55
2020/12/04 10:09:24;;;;;;;32.17;19.08;;;3.10;70.20;;;;;;5117375;28;20114;-57
2020/12/04 10:11:50;;;;;;;29.42;17.17;;;3.10;70.00;;;;;;5115706;28;20069;-59
2020/12/04 10:14:17;;;;;;;29.35;17.58;;;3.20;70.40;;;;;;5109620;28;20031;-55
2020/12/04 10:16:44;;;;;;;29.60;17.35;;;3.20;70.60;;;;;;5122693;28;20111;-58
2020/12/04 10:19:12;;;;;;;31.13;17.42;;;3.30;70.60;;;;;;5119894;28;20030;-57
2020/12/04 10:21:37;;;;;;;27.48;17.15;;;3.30;70.10;;;;;;5120429;28;20036;-62
2020/12/04 10:24:09;;;;;;;27.13;16.17;;;3.30;70.00;;;;;;5117618;28;20036;-60
2020/12/04 10:26:47;;;;;;;31.60;17.73;;;3.10;70.40;;;;;;5096448;28;20370;-60
2020/12/04 10:29:13;;;;;;;29.88;16.92;;;3.00;70.70;;;;;;5113612;28;20032;-62
2020/12/04 10:31:39;;;;;;;27.33;17.92;;;3.00;71.60;;;;;;5096585;28;20039;-60
2020/12/04 10:34:04;;;;;;;35.60;19.63;;;3.00;71.90;;;;;;5113360;28;20031;-62
2020/12/04 10:36:31;;;;;;;28.85;17.60;;;3.00;72.20;;;;;;5094080;28;20370;-61
2020/12/04 10:39:00;;;;;;;27.13;17.17;;;3.00;72.40;;;;;;5094606;28;20078;-61
2020/12/04 10:41:31;;;;;;;27.77;17.05;;;3.20;72.50;;;;;;5117209;28;20055;-61
2020/12/04 10:43:57;;;;;;;29.25;17.80;;;3.10;72.10;;;;;;5125274;28;20036;-60
2020/12/04 10:46:22;;;;;;;27.98;17.60;;;3.10;72.70;;;;;;5103192;28;20093;-59
2020/12/04 10:48:48;;;;;;;27.85;17.90;;;3.20;72.50;;;;;;5101337;28;20114;-63
2020/12/04 10:51:17;;;;;;;28.85;17.45;;;3.30;72.20;;;;;;5122143;27;20036;-61
2020/12/04 10:53:43;;;;;;;28.20;18.85;;;3.40;72.00;;;;;;5095566;28;20140;-62
2020/12/04 10:56:09;;;;;;;28.10;17.98;;;3.50;71.70;;;;;;5093281;28;20485;-60
2020/12/04 10:58:34;;;;;;;28.63;18.05;;;3.60;71.20;;;;;;5093677;28;20435;-61
2020/12/04 11:01:00;;;;;;;30.15;17.88;;;3.50;71.20;;;;;;5093033;28;20107;-60
2020/12/04 11:03:40;;;;;;;25.95;17.55;;;3.60;71.30;;;;;;5110779;28;20028;-62
2020/12/04 11:06:06;;;;;;;27.38;17.80;;;3.60;71.30;;;;;;5117582;27;20492;-62
2020/12/04 11:08:32;;;;;;;33.10;18.15;;;3.60;71.10;;;;;;5119154;27;20103;-63
2020/12/04 11:10:57;;;;;;;28.42;16.88;;;3.70;71.20;;;;;;5087694;28;20035;-61
2020/12/04 11:13:23;;;;;;;26.85;17.17;;;3.70;71.40;;;;;;5110391;28;20405;-61
2020/12/04 11:15:48;;;;;;;29.30;18.42;;;3.40;71.90;;;;;;5074717;28;20031;-63
2020/12/04 11:18:14;;;;;;;26.63;18.27;;;3.50;72.30;;;;;;5098577;28;20028;-64
2020/12/04 11:20:39;;;;;;;28.40;17.33;;;3.50;72.20;;;;;;5095953;28;20020;-61
2020/12/04 11:23:05;;;;;;;26.50;16.58;;;3.60;71.90;;;;;;5111687;28;20044;-60
2020/12/04 11:25:31;;;;;;;27.48;17.00;;;3.60;71.60;;;;;;5112816;28;20120;-61
2020/12/04 11:27:56;;;;;;;25.52;16.85;;;3.70;71.80;;;;;;5092457;28;20444;-62
2020/12/04 11:30:22;;;;;;;26.33;17.73;;;3.70;71.80;;;;;;5113344;28;20089;-62
2020/12/04 11:32:49;;;;;;;31.25;16.95;;;3.60;72.00;;;;;;5097100;28;20152;-60
2020/12/04 11:35:16;;;;;;;26.73;17.85;;;3.60;72.40;;;;;;5092198;28;20032;-61
2020/12/04 11:37:45;;;;;;;23.80;16.23;;;3.40;72.90;;;;;;5092955;28;20025;-60
2020/12/04 11:40:12;;;;;;;26.80;16.38;;;3.40;73.00;;;;;;5092831;28;20028;-60
2020/12/04 11:42:39;;;;;;;29.02;16.63;;;3.50;72.50;;;;;;5104788;28;20091;-63
2020/12/04 11:45:07;;;;;;;31.33;17.20;;;3.60;72.20;;;;;;5096177;28;20028;-63
2020/12/04 11:47:37;;;;;;;30.90;16.83;;;3.50;72.40;;;;;;5103357;28;20044;-62
2020/12/04 11:50:07;;;;;;;25.90;15.73;;;3.50;72.20;;;;;;5112933;28;20039;-63
2020/12/04 11:52:32;;;;;;;28.70;16.15;;;3.50;72.00;;;;;;5112110;28;20035;-64
2020/12/04 11:54:58;;;;;;;26.05;16.75;;;3.60;72.00;;;;;;5112048;28;20028;-62
2020/12/04 11:57:24;;;;;;;28.67;16.02;;;3.60;71.90;;;;;;5110038;28;20177;-63
2020/12/04 11:59:49;;;;;;;24.98;16.15;;;3.70;71.70;;;;;;5100299;28;20548;-61
2020/12/04 12:02:15;;;;;;;27.38;17.65;;;3.80;71.10;;;;;;5099116;28;20024;-62
2020/12/04 12:04:40;;;;;;;21.25;15.05;;;3.70;70.70;;;;;;5112228;28;20043;-62
2020/12/04 12:07:06;;;;;;;28.88;16.42;;;3.80;70.70;;;;;;5112459;28;20111;-61
2020/12/04 12:09:32;;;;;;;25.58;17.05;;;4.10;70.60;;;;;;5112652;28;20074;-62
2020/12/04 12:11:57;;;;;;;25.42;17.02;;;4.10;69.90;;;;;;5110460;28;20139;-63
2020/12/04 12:14:23;;;;;;;26.67;16.92;;;4.10;70.00;;;;;;5112230;28;20047;-61
2020/12/04 12:16:48;;;;;;;28.40;17.60;;;4.20;69.70;;;;;;5111247;28;20505;-61
2020/12/04 12:19:14;;;;;;;26.25;16.77;;;4.40;69.50;;;;;;5109343;28;20054;-61
2020/12/04 12:21:46;;;;;;;29.42;17.27;;;4.60;69.20;;;;;;5118459;28;20054;-61
2020/12/04 12:24:12;;;;;;;25.88;16.20;;;4.70;69.20;;;;;;5098979;28;20062;-61
2020/12/04 12:26:37;;;;;;;25.13;15.98;;;4.90;67.80;;;;;;5070278;28;20055;-62
2020/12/04 12:29:04;;;;;;;23.58;16.58;;;5.10;67.40;;;;;;5100032;28;20028;-61
2020/12/04 12:31:29;;;;;;;23.63;15.43;;;5.10;67.30;;;;;;5108295;28;20130;-60
2020/12/04 12:33:57;;;;;;;24.77;15.13;;;5.20;67.20;;;;;;5111619;28;20161;-62
2020/12/04 12:36:23;;;;;;;25.45;15.75;;;5.20;66.80;;;;;;5112105;28;20039;-61
2020/12/04 12:38:49;;;;;;;25.00;16.00;;;5.30;66.30;;;;;;5096657;28;20032;-59
2020/12/04 12:41:15;;;;;;;23.10;14.95;;;5.50;66.30;;;;;;5096028;28;20517;-59
2020/12/04 12:43:41;;;;;;;24.50;15.93;;;5.60;67.20;;;;;;5096007;28;20134;-66
2020/12/04 12:46:07;;;;;;;23.83;16.52;;;5.80;66.10;;;;;;5097478;28;20200;-63
2020/12/04 12:48:33;;;;;;;22.95;16.25;;;5.80;64.20;;;;;;5101035;28;20031;-63
2020/12/04 12:50:58;;;;;;;24.20;15.43;;;5.90;63.90;;;;;;5092825;28;20709;-60
2020/12/04 12:53:24;;;;;;;30.00;17.77;;;5.90;64.50;;;;;;5112385;28;20678;-61
2020/12/04 12:55:50;;;;;;;23.98;15.07;;;6.10;64.00;;;;;;5112096;28;20038;-62